createdAt,value
2017-01-18T00:00:05.919Z,30.1
2017-01-18T00:02:08.220Z,30.1
2017-01-18T00:04:13.509Z,30.1
2017-01-18T00:06:05.285Z,30.1
2017-01-18T00:08:05.653Z,30.1
2017-01-18T00:10:07.848Z,30.1
2017-01-18T00:12:05.060Z,30.2
2017-01-18T00:14:11.175Z,30.2
2017-01-18T00:16:05.904Z,30.2
2017-01-18T00:18:05.311Z,30.1
2017-01-18T00:20:06.334Z,30.2
2017-01-18T00:22:05.576Z,30.2
2017-01-18T00:24:05.641Z,30.1
2017-01-18T00:26:05.508Z,30.2
2017-01-18T00:28:10.338Z,30.1
2017-01-18T00:30:05.001Z,30.1
2017-01-18T00:32:05.879Z,30.2
2017-01-18T00:34:05.580Z,30.2
2017-01-18T00:36:05.303Z,30.2
2017-01-18T00:38:07.706Z,30.2
2017-01-18T00:40:06.930Z,30.2
2017-01-18T00:42:05.877Z,30
2017-01-18T00:44:05.778Z,30.2
2017-01-18T00:46:05.628Z,30.2
2017-01-18T00:48:05.471Z,30
2017-01-18T00:50:05.533Z,30.2
2017-01-18T00:52:05.259Z,30
2017-01-18T00:54:04.986Z,30.1
2017-01-18T00:56:05.829Z,30.2
2017-01-18T00:58:05.505Z,30.2
2017-01-18T01:00:08.007Z,30.1
2017-01-18T01:02:05.486Z,30
2017-01-18T01:04:05.201Z,30
2017-01-18T01:06:05.964Z,30
2017-01-18T01:08:05.797Z,30
2017-01-18T01:10:07.554Z,30
2017-01-18T01:12:06.167Z,30
2017-01-18T01:14:06.388Z,30.1
2017-01-18T01:16:05.052Z,30
2017-01-18T01:18:06.065Z,30
2017-01-18T01:20:06.143Z,30
2017-01-18T01:22:08.384Z,30
2017-01-18T01:24:05.110Z,30
2017-01-18T01:26:08.397Z,30
2017-01-18T01:28:05.808Z,30
2017-01-18T01:30:05.570Z,30
2017-01-18T01:32:05.882Z,30
2017-01-18T01:34:08.219Z,30
2017-01-18T01:36:05.957Z,30
2017-01-18T01:38:06.045Z,30
2017-01-18T01:40:05.757Z,30
2017-01-18T01:42:05.484Z,30
2017-01-18T01:44:12.904Z,30
2017-01-18T01:46:05.740Z,30
2017-01-18T01:48:05.448Z,30
2017-01-18T01:50:05.330Z,30
2017-01-18T01:52:05.054Z,30
2017-01-18T01:54:10.804Z,30
2017-01-18T01:56:10.851Z,30
2017-01-18T01:58:13.109Z,30
2017-01-18T02:00:06.126Z,29.8
2017-01-18T02:02:06.199Z,30
2017-01-18T02:04:05.924Z,29.8
2017-01-18T02:06:05.388Z,30
2017-01-18T02:08:07.986Z,30
2017-01-18T02:10:05.672Z,30
2017-01-18T02:12:05.399Z,30
2017-01-18T02:14:05.423Z,30
2017-01-18T02:16:05.268Z,30
2017-01-18T02:18:05.164Z,30
2017-01-18T02:20:05.860Z,30
2017-01-18T02:22:05.637Z,29.8
2017-01-18T02:24:05.407Z,30
2017-01-18T02:26:05.382Z,29.8
2017-01-18T02:28:05.130Z,30
2017-01-18T02:30:05.868Z,29.8
2017-01-18T02:32:08.314Z,30
2017-01-18T02:34:05.571Z,29.8
2017-01-18T02:36:05.253Z,29.8
2017-01-18T02:38:06.208Z,29.8
2017-01-18T02:40:05.901Z,29.8
2017-01-18T02:42:05.597Z,29.9
2017-01-18T02:44:05.325Z,29.8
2017-01-18T02:46:08.203Z,29.8
2017-01-18T02:48:09.276Z,29.8
2017-01-18T02:50:07.346Z,29.8
2017-01-18T02:52:08.168Z,29.8
2017-01-18T02:54:06.003Z,29.8
2017-01-18T02:56:05.811Z,29.8
2017-01-18T02:58:05.487Z,29.8
2017-01-18T03:00:05.185Z,29.8
2017-01-18T03:02:06.027Z,29.8
2017-01-18T03:04:11.008Z,29.8
2017-01-18T03:06:05.708Z,29.8
2017-01-18T03:08:05.729Z,29.9
2017-01-18T03:10:05.472Z,29.8
2017-01-18T03:12:05.169Z,29.8
2017-01-18T03:14:06.247Z,29.8
2017-01-18T03:16:08.012Z,29.8
2017-01-18T03:18:10.965Z,29.8
2017-01-18T03:20:10.842Z,29.7
2017-01-18T03:22:05.531Z,29.9
2017-01-18T03:24:05.236Z,29.7
2017-01-18T03:26:06.020Z,29.8
2017-01-18T03:28:05.703Z,29.7
2017-01-18T03:30:05.606Z,29.7
2017-01-18T03:32:08.007Z,29.8
2017-01-18T03:34:08.325Z,29.7
2017-01-18T03:36:05.423Z,29.7
2017-01-18T03:38:05.208Z,29.7
2017-01-18T03:40:05.879Z,29.7
2017-01-18T03:42:05.580Z,29.7
2017-01-18T03:44:07.823Z,29.7
2017-01-18T03:46:05.545Z,29.7
2017-01-18T03:48:05.805Z,29.7
2017-01-18T03:50:08.398Z,29.7
2017-01-18T03:52:08.030Z,29.7
2017-01-18T03:54:05.775Z,29.7
2017-01-18T03:56:08.195Z,29.7
2017-01-18T03:58:05.903Z,29.7
2017-01-18T04:00:09.164Z,29.7
2017-01-18T04:02:05.749Z,29.7
2017-01-18T04:04:05.466Z,29.7
2017-01-18T04:06:10.287Z,29.7
2017-01-18T04:08:05.411Z,29.7
2017-01-18T04:10:05.698Z,29.7
2017-01-18T04:12:07.949Z,29.7
2017-01-18T04:14:05.184Z,29.7
2017-01-18T04:16:05.425Z,29.7
2017-01-18T04:18:05.324Z,29.7
2017-01-18T04:20:05.373Z,29.7
2017-01-18T04:22:05.129Z,29.7
2017-01-18T04:24:06.185Z,29.7
2017-01-18T04:26:10.876Z,29.5
2017-01-18T04:28:05.098Z,29.7
2017-01-18T04:30:05.790Z,29.7
2017-01-18T04:32:05.320Z,29.7
2017-01-18T04:34:17.660Z,29.5
2017-01-18T04:36:05.408Z,29.4
2017-01-18T04:38:05.645Z,29.7
2017-01-18T04:40:05.716Z,29.7
2017-01-18T04:42:05.455Z,29.5
2017-01-18T04:44:05.338Z,29.7
2017-01-18T04:46:05.067Z,29.5
2017-01-18T04:48:05.794Z,29.6
2017-01-18T04:50:05.568Z,29.6
2017-01-18T04:52:05.299Z,29.6
2017-01-18T04:54:05.081Z,29.5
2017-01-18T04:56:06.432Z,29.4
2017-01-18T04:58:07.712Z,29.7
2017-01-18T05:00:05.418Z,29.5
2017-01-18T05:02:05.645Z,29.5
2017-01-18T05:04:05.893Z,29.7
2017-01-18T05:06:05.117Z,29.6
2017-01-18T05:08:05.983Z,29.6
2017-01-18T05:10:05.772Z,29.6
2017-01-18T05:12:10.829Z,29.7
2017-01-18T05:14:07.541Z,29.6
2017-01-18T05:16:05.778Z,29.6
2017-01-18T05:18:10.325Z,29.6
2017-01-18T05:20:05.365Z,29.6
2017-01-18T05:22:10.106Z,29.6
2017-01-18T05:24:05.453Z,29.6
2017-01-18T05:26:05.537Z,29.5
2017-01-18T05:28:06.115Z,29.5
2017-01-18T05:30:05.607Z,29.5
2017-01-18T05:32:05.354Z,29.6
2017-01-18T05:34:05.055Z,29.5
2017-01-18T05:36:08.496Z,29.6
2017-01-18T05:38:05.539Z,29.6
2017-01-18T05:40:05.781Z,29.5
2017-01-18T05:42:05.564Z,29.6
2017-01-18T05:44:05.659Z,29.5
2017-01-18T05:46:05.443Z,29.5
2017-01-18T05:48:05.216Z,29.6
2017-01-18T05:50:06.031Z,29.5
2017-01-18T05:52:05.948Z,29.6
2017-01-18T05:54:08.410Z,29.5
2017-01-18T05:56:05.943Z,29.5
2017-01-18T05:58:05.663Z,29.5
2017-01-18T06:00:05.397Z,29.7
2017-01-18T06:02:05.274Z,29.6
2017-01-18T06:04:05.973Z,29.5
2017-01-18T06:06:05.646Z,29.7
2017-01-18T06:08:05.785Z,29.5
2017-01-18T06:10:07.556Z,29.6
2017-01-18T06:12:05.891Z,29.6
2017-01-18T06:14:08.537Z,29.8
2017-01-18T06:16:06.110Z,29.8
2017-01-18T06:18:05.121Z,29.9
2017-01-18T06:20:08.552Z,30
2017-01-18T06:22:05.228Z,30
2017-01-18T06:24:05.919Z,30
2017-01-18T06:26:05.334Z,30
2017-01-18T06:28:05.598Z,30
2017-01-18T06:30:05.389Z,30
2017-01-18T06:32:10.764Z,30.1
2017-01-18T06:34:05.471Z,30.1
2017-01-18T06:36:07.695Z,30.2
2017-01-18T06:38:05.524Z,30
2017-01-18T06:40:07.757Z,30.3
2017-01-18T06:42:05.474Z,30
2017-01-18T06:44:05.225Z,30
2017-01-18T06:46:05.879Z,30
2017-01-18T06:48:05.781Z,30
2017-01-18T06:50:05.563Z,30
2017-01-18T06:52:05.294Z,30
2017-01-18T06:54:05.592Z,30
2017-01-18T06:56:10.478Z,30
2017-01-18T06:58:05.811Z,30
2017-01-18T07:00:05.492Z,30
2017-01-18T07:02:05.197Z,30
2017-01-18T07:04:06.380Z,30
2017-01-18T07:06:05.115Z,30
2017-01-18T07:08:06.048Z,29.9
2017-01-18T07:10:05.832Z,29.9
2017-01-18T07:12:05.601Z,30
2017-01-18T07:14:08.178Z,30
2017-01-18T07:16:05.916Z,29.9
2017-01-18T07:18:05.824Z,30
2017-01-18T07:20:05.861Z,30
2017-01-18T07:22:05.544Z,29.9
2017-01-18T07:24:05.834Z,30
2017-01-18T07:26:05.601Z,29.9
2017-01-18T07:28:05.314Z,29.9
2017-01-18T07:30:05.243Z,29.9
2017-01-18T07:32:05.523Z,29.9
2017-01-18T07:34:05.204Z,29.9
2017-01-18T07:36:07.230Z,29.9
2017-01-18T07:38:06.377Z,29.9
2017-01-18T07:40:07.591Z,29.9
2017-01-18T07:42:05.540Z,29.9
2017-01-18T07:44:05.916Z,29.8
2017-01-18T07:46:05.687Z,29.9
2017-01-18T07:48:07.923Z,29.9
2017-01-18T07:50:08.124Z,29.8
2017-01-18T07:52:06.092Z,29.9
2017-01-18T07:54:05.775Z,29.9
2017-01-18T07:56:05.721Z,29.9
2017-01-18T07:58:05.461Z,29.9
2017-01-18T08:00:05.132Z,30.1
2017-01-18T08:02:06.167Z,29.8
2017-01-18T08:04:05.860Z,29.7
2017-01-18T08:06:05.652Z,29.9
2017-01-18T08:08:05.533Z,29.7
2017-01-18T08:10:05.277Z,29.7
2017-01-18T08:12:06.003Z,29.8
2017-01-18T08:14:05.558Z,30.1
2017-01-18T08:16:05.842Z,29.7
2017-01-18T08:18:05.714Z,29.9
2017-01-18T08:20:07.991Z,29.7
2017-01-18T08:22:09.222Z,29.9
2017-01-18T08:24:05.661Z,29.8
2017-01-18T08:26:05.571Z,30.1
2017-01-18T08:28:05.281Z,29.8
2017-01-18T08:30:05.588Z,29.8
2017-01-18T08:32:05.537Z,29.8
2017-01-18T08:34:10.292Z,29.8
2017-01-18T08:36:05.977Z,29.8
2017-01-18T08:38:05.365Z,29.8
2017-01-18T08:40:05.465Z,29.8
2017-01-18T08:42:05.160Z,29.7
2017-01-18T08:44:06.052Z,29.7
2017-01-18T08:46:05.813Z,29.7
2017-01-18T08:48:08.051Z,29.7
2017-01-18T08:50:06.035Z,29.7
2017-01-18T08:52:05.772Z,29.7
2017-01-18T08:54:05.503Z,29.7
2017-01-18T08:56:06.057Z,29.7
2017-01-18T08:58:05.713Z,29.7
2017-01-18T09:00:05.424Z,29.7
2017-01-18T09:02:05.825Z,29.7
2017-01-18T09:04:07.722Z,29.7
2017-01-18T09:06:05.389Z,29.6
2017-01-18T09:08:05.584Z,29.6
2017-01-18T09:10:05.385Z,29.6
2017-01-18T09:12:16.181Z,29.6
2017-01-18T09:14:06.243Z,29.6
2017-01-18T09:16:05.443Z,29.7
2017-01-18T09:18:05.845Z,29.7
2017-01-18T09:20:13.542Z,29.6
2017-01-18T09:22:08.316Z,29.7
2017-01-18T09:24:05.039Z,29.6
2017-01-18T09:26:05.911Z,29.6
2017-01-18T09:28:05.789Z,29.6
2017-01-18T09:30:08.153Z,29.7
2017-01-18T09:32:06.303Z,29.6
2017-01-18T09:34:06.000Z,29.7
2017-01-18T09:36:08.194Z,29.5
2017-01-18T09:38:05.710Z,29.5
2017-01-18T09:40:07.940Z,29.7
2017-01-18T09:42:05.221Z,29.7
2017-01-18T09:44:05.787Z,29.7
2017-01-18T09:46:05.819Z,29.6
2017-01-18T09:48:05.611Z,29.6
2017-01-18T09:50:05.754Z,29.5
2017-01-18T09:52:10.073Z,29.6
2017-01-18T09:54:05.770Z,29.4
2017-01-18T09:56:08.010Z,29.6
2017-01-18T09:58:05.704Z,29.4
2017-01-18T10:00:05.424Z,29.5
2017-01-18T10:02:08.048Z,29.6
2017-01-18T10:04:09.743Z,29.6
2017-01-18T10:06:05.476Z,29.5
2017-01-18T10:08:13.284Z,29.4
2017-01-18T10:10:06.291Z,29.6
2017-01-18T10:12:05.286Z,29.6
2017-01-18T10:14:06.879Z,29.6
2017-01-18T10:16:05.869Z,29.6
2017-01-18T10:18:05.759Z,29.4
2017-01-18T10:20:06.533Z,29.6
2017-01-18T10:22:05.721Z,29.6
2017-01-18T10:24:05.436Z,29.4
2017-01-18T10:26:06.043Z,29.4
2017-01-18T10:28:08.324Z,29.4
2017-01-18T10:30:08.363Z,29.4
2017-01-18T10:32:05.082Z,29.4
2017-01-18T10:34:05.801Z,29.4
2017-01-18T10:36:05.488Z,29.6
2017-01-18T10:38:06.385Z,29.4
2017-01-18T10:40:07.697Z,29.4
2017-01-18T10:42:05.454Z,29.4
2017-01-18T10:44:08.062Z,29.4
2017-01-18T10:46:05.723Z,29.4
2017-01-18T10:48:05.832Z,29.4
2017-01-18T10:50:06.069Z,29.4
2017-01-18T10:52:05.815Z,29.3
2017-01-18T10:54:05.509Z,29.4
2017-01-18T10:56:05.215Z,29.4
2017-01-18T10:58:07.986Z,29.4
2017-01-18T11:00:05.279Z,29.3
2017-01-18T11:02:06.120Z,29.3
2017-01-18T11:04:05.841Z,29.3
2017-01-18T11:06:05.531Z,29.3
2017-01-18T11:08:05.297Z,29.3
2017-01-18T11:10:05.993Z,29.3
2017-01-18T11:12:05.782Z,29.3
2017-01-18T11:14:05.868Z,29.3
2017-01-18T11:16:05.669Z,29.3
2017-01-18T11:18:05.263Z,29.2
2017-01-18T11:20:11.115Z,29.3
2017-01-18T11:22:06.036Z,29.1
2017-01-18T11:24:05.312Z,29.2
2017-01-18T11:26:10.658Z,29.2
2017-01-18T11:28:05.438Z,29.2
2017-01-18T11:30:05.171Z,29.2
2017-01-18T11:32:08.411Z,29.2
2017-01-18T11:34:05.085Z,29
2017-01-18T11:36:08.630Z,29.2
2017-01-18T11:38:05.748Z,29.2
2017-01-18T11:40:08.153Z,29
2017-01-18T11:42:05.121Z,28.9
2017-01-18T11:44:06.544Z,29.2
2017-01-18T11:46:05.744Z,29.1
2017-01-18T11:48:05.425Z,29.1
2017-01-18T11:50:07.799Z,28.9
2017-01-18T11:52:06.155Z,28.9
2017-01-18T11:54:05.832Z,28.9
2017-01-18T11:56:08.399Z,28.9
2017-01-18T11:58:05.144Z,28.9
2017-01-18T12:00:05.894Z,28.9
2017-01-18T12:02:05.786Z,28.9
2017-01-18T12:04:05.556Z,28.9
2017-01-18T12:06:05.286Z,28.9
2017-01-18T12:08:06.322Z,28.9
2017-01-18T12:10:04.993Z,28.9
2017-01-18T12:12:05.290Z,28.9
2017-01-18T12:14:08.788Z,28.9
2017-01-18T12:16:05.477Z,28.9
2017-01-18T12:18:05.591Z,28.9
2017-01-18T12:20:07.946Z,28.9
2017-01-18T12:22:05.700Z,28.9
2017-01-18T12:24:13.374Z,28.8
2017-01-18T12:26:05.153Z,28.8
2017-01-18T12:28:08.389Z,28.8
2017-01-18T12:30:05.326Z,28.8
2017-01-18T12:32:08.115Z,28.9
2017-01-18T12:34:05.849Z,28.9
2017-01-18T12:36:05.585Z,28.8
2017-01-18T12:38:08.270Z,28.8
2017-01-18T12:40:11.327Z,28.8
2017-01-18T12:42:05.161Z,28.8
2017-01-18T12:44:08.411Z,28.8
2017-01-18T12:46:05.105Z,28.8
2017-01-18T12:48:05.358Z,28.8
2017-01-18T12:50:05.139Z,28.8
2017-01-18T12:52:05.905Z,28.8
2017-01-18T12:54:05.654Z,28.8
2017-01-18T12:56:05.691Z,28.8
2017-01-18T12:58:05.947Z,28.8
2017-01-18T13:00:05.617Z,28.8
2017-01-18T13:02:05.666Z,28.8
2017-01-18T13:04:05.432Z,28.8
2017-01-18T13:06:05.124Z,28.8
2017-01-18T13:08:08.365Z,28.7
2017-01-18T13:10:05.085Z,28.7
2017-01-18T13:12:07.880Z,28.8
2017-01-18T13:14:05.695Z,28.8
2017-01-18T13:16:05.393Z,28.8
2017-01-18T13:18:05.307Z,28.7
2017-01-18T13:20:05.169Z,28.8
2017-01-18T13:22:05.909Z,28.7
2017-01-18T13:24:08.118Z,28.7
2017-01-18T13:26:06.118Z,28.7
2017-01-18T13:28:05.956Z,28.7
2017-01-18T13:30:08.395Z,28.8
2017-01-18T13:32:05.257Z,28.8
2017-01-18T13:34:06.379Z,28.7
2017-01-18T13:36:07.683Z,28.7
2017-01-18T13:38:05.617Z,28.7
2017-01-18T13:40:07.901Z,28.7
2017-01-18T13:42:08.212Z,28.7
2017-01-18T13:44:06.260Z,28.7
2017-01-18T13:46:05.960Z,28.7
2017-01-18T13:48:07.756Z,28.7
2017-01-18T13:50:05.581Z,28.7
2017-01-18T13:52:05.531Z,28.7
2017-01-18T13:54:08.037Z,28.7
2017-01-18T13:56:10.816Z,28.7
2017-01-18T13:58:05.498Z,28.7
2017-01-18T14:00:05.794Z,28.7
2017-01-18T14:02:05.717Z,28.7
2017-01-18T14:04:05.396Z,28.6
2017-01-18T14:06:05.122Z,28.6
2017-01-18T14:08:06.146Z,28.6
2017-01-18T14:10:05.893Z,28.6
2017-01-18T14:12:05.616Z,28.6
2017-01-18T14:14:05.638Z,28.6
2017-01-18T14:16:05.431Z,28.6
2017-01-18T14:18:05.330Z,28.6
2017-01-18T14:20:07.699Z,28.6
2017-01-18T14:22:05.340Z,28.6
2017-01-18T14:24:05.042Z,28.5
2017-01-18T14:26:05.570Z,28.5
2017-01-18T14:28:05.330Z,28.6
2017-01-18T14:30:05.063Z,28.5
2017-01-18T14:32:05.633Z,28.5
2017-01-18T14:34:05.417Z,28.5
2017-01-18T14:36:05.157Z,28.5
2017-01-18T14:38:06.066Z,28.5
2017-01-18T14:40:05.912Z,28.5
2017-01-18T14:42:05.581Z,28.5
2017-01-18T14:44:05.352Z,28.5
2017-01-18T14:46:05.097Z,28.5
2017-01-18T14:48:05.493Z,28.5
2017-01-18T14:50:05.443Z,28.5
2017-01-18T14:52:05.112Z,28.5
2017-01-18T14:54:09.377Z,28.5
2017-01-18T14:56:05.094Z,28.5
2017-01-18T14:58:08.310Z,28.5
2017-01-18T15:00:05.542Z,28.5
2017-01-18T15:02:07.776Z,28.5
2017-01-18T15:04:05.449Z,28.5
2017-01-18T15:06:05.142Z,28.5
2017-01-18T15:08:06.020Z,28.5
2017-01-18T15:10:07.848Z,28.4
2017-01-18T15:12:05.616Z,28.4
2017-01-18T15:14:05.490Z,28.5
2017-01-18T15:16:05.200Z,28.5
2017-01-18T15:18:05.096Z,28.5
2017-01-18T15:20:08.459Z,28.5
2017-01-18T15:22:05.148Z,28.5
2017-01-18T15:24:05.448Z,28.5
2017-01-18T15:26:05.478Z,28.5
2017-01-18T15:28:05.208Z,28.3
2017-01-18T15:30:05.959Z,28.5
2017-01-18T15:32:06.080Z,28.5
2017-01-18T15:34:05.791Z,28.5
2017-01-18T15:36:10.680Z,28.3
2017-01-18T15:38:05.405Z,28.5
2017-01-18T15:40:05.423Z,28.3
2017-01-18T15:42:07.676Z,28.3
2017-01-18T15:44:05.876Z,28.3
2017-01-18T15:46:05.608Z,28.3
2017-01-18T15:48:05.325Z,28.3
2017-01-18T15:50:08.185Z,28.3
2017-01-18T15:52:08.789Z,28.3
2017-01-18T15:54:08.123Z,28.3
2017-01-18T15:56:05.808Z,28.3
2017-01-18T15:58:05.521Z,28.3
2017-01-18T16:00:06.146Z,28.3
2017-01-18T16:02:05.891Z,28.6
2017-01-18T16:04:05.259Z,28.3
2017-01-18T16:06:08.558Z,28.3
2017-01-18T16:08:11.494Z,28.3
2017-01-18T16:10:05.700Z,28.3
2017-01-18T16:12:05.421Z,28.3
2017-01-18T16:14:05.721Z,28.3
2017-01-18T16:16:05.468Z,28.3
2017-01-18T16:18:05.400Z,28.3
2017-01-18T16:20:08.433Z,28.3
2017-01-18T16:22:05.743Z,28.3
2017-01-18T16:24:05.606Z,28.3
2017-01-18T16:26:08.408Z,28.3
2017-01-18T16:28:05.088Z,28.2
2017-01-18T16:30:05.854Z,28.3
2017-01-18T16:32:05.429Z,28.3
2017-01-18T16:34:07.673Z,28.2
2017-01-18T16:36:07.963Z,28.3
2017-01-18T16:38:05.532Z,28.1
2017-01-18T16:40:05.766Z,28.3
2017-01-18T16:42:05.980Z,28.3
2017-01-18T16:44:06.570Z,28.3
2017-01-18T16:46:05.422Z,28.3
2017-01-18T16:48:13.607Z,28.1
2017-01-18T16:50:05.665Z,28.2
2017-01-18T16:52:07.740Z,28.3
2017-01-18T16:54:08.000Z,28.3
2017-01-18T16:56:05.930Z,28.3
2017-01-18T16:58:05.706Z,28.3
2017-01-18T17:00:07.965Z,28.1
2017-01-18T17:02:05.432Z,28.1
2017-01-18T17:04:05.371Z,28.1
2017-01-18T17:06:05.098Z,28.2
2017-01-18T17:08:08.452Z,28.2
2017-01-18T17:10:05.138Z,28.2
2017-01-18T17:12:08.404Z,28.1
2017-01-18T17:14:05.505Z,28.1
2017-01-18T17:16:05.231Z,28.1
2017-01-18T17:18:05.097Z,28.1
2017-01-18T17:20:05.998Z,28.1
2017-01-18T17:22:10.761Z,28.1
2017-01-18T17:24:05.496Z,28.1
2017-01-18T17:26:05.847Z,28.1
2017-01-18T17:28:05.942Z,28.2
2017-01-18T17:30:05.676Z,28.1
2017-01-18T17:32:05.384Z,28.1
2017-01-18T17:34:05.169Z,28.1
2017-01-18T17:36:06.048Z,28.2
2017-01-18T17:38:06.006Z,28.2
2017-01-18T17:40:08.437Z,28.1
2017-01-18T17:42:05.636Z,28.1
2017-01-18T17:44:08.248Z,28.1
2017-01-18T17:46:06.161Z,28.1
2017-01-18T17:48:06.106Z,28.1
2017-01-18T17:50:05.916Z,28.1
2017-01-18T17:52:05.731Z,28.1
2017-01-18T17:54:05.993Z,28.2
2017-01-18T17:56:08.559Z,28.2
2017-01-18T17:58:05.249Z,28.2
2017-01-18T18:00:06.310Z,28.2
2017-01-18T18:02:04.981Z,28
2017-01-18T18:04:05.695Z,28.1
2017-01-18T18:06:36.726Z,28.2
2017-01-18T18:08:08.301Z,28.2
2017-01-18T18:10:07.554Z,28.1
2017-01-18T18:12:05.775Z,28.1
2017-01-18T18:14:05.694Z,28
2017-01-18T18:16:05.709Z,28.2
2017-01-18T18:18:05.638Z,28.2
2017-01-18T18:20:06.316Z,28.2
2017-01-18T18:22:05.070Z,28.2
2017-01-18T18:24:05.778Z,28.2
2017-01-18T18:26:05.503Z,28
2017-01-18T18:28:05.217Z,28.1
2017-01-18T18:30:05.907Z,28.2
2017-01-18T18:32:08.457Z,28.2
2017-01-18T18:34:05.796Z,28
2017-01-18T18:36:05.643Z,28.2
2017-01-18T18:38:05.915Z,28
2017-01-18T18:40:05.662Z,28.2
2017-01-18T18:42:05.970Z,28.2
2017-01-18T18:44:10.958Z,28.2
2017-01-18T18:46:05.627Z,28
2017-01-18T18:48:06.189Z,28.2
2017-01-18T18:50:06.200Z,28
2017-01-18T18:52:05.899Z,28
2017-01-18T18:54:05.123Z,28.2
2017-01-18T18:56:05.963Z,28
2017-01-18T18:58:05.282Z,28
2017-01-18T19:00:10.305Z,28
2017-01-18T19:02:05.063Z,28
2017-01-18T19:04:05.704Z,28
2017-01-18T19:06:05.543Z,28
2017-01-18T19:08:05.385Z,28
2017-01-18T19:10:05.144Z,28
2017-01-18T19:12:05.866Z,28
2017-01-18T19:14:05.407Z,28
2017-01-18T19:16:08.191Z,27.9
2017-01-18T19:18:05.323Z,27.9
2017-01-18T19:20:10.403Z,28
2017-01-18T19:22:05.061Z,28
2017-01-18T19:24:06.745Z,28
2017-01-18T19:26:05.630Z,28
2017-01-18T19:28:07.905Z,28
2017-01-18T19:30:05.646Z,28
2017-01-18T19:32:05.547Z,28
2017-01-18T19:34:06.854Z,28
2017-01-18T19:36:06.581Z,28
2017-01-18T19:38:06.990Z,28
2017-01-18T19:40:05.690Z,28
2017-01-18T19:42:08.121Z,28
2017-01-18T19:44:12.274Z,28
2017-01-18T19:46:05.506Z,28
2017-01-18T19:48:10.247Z,28
2017-01-18T19:50:07.111Z,28
2017-01-18T19:52:05.037Z,28
2017-01-18T19:54:05.706Z,28
2017-01-18T19:56:06.502Z,28
2017-01-18T19:58:05.460Z,28
2017-01-18T20:00:05.211Z,28
2017-01-18T20:02:06.335Z,28
2017-01-18T20:04:07.764Z,28
2017-01-18T20:06:05.802Z,28
2017-01-18T20:08:10.566Z,28
2017-01-18T20:10:05.541Z,27.9
2017-01-18T20:12:05.903Z,27.9
2017-01-18T20:14:05.699Z,28
2017-01-18T20:16:06.485Z,27.9
2017-01-18T20:18:05.399Z,28
2017-01-18T20:20:15.325Z,28
2017-01-18T20:22:05.381Z,28
2017-01-18T20:24:10.676Z,28
2017-01-18T20:26:05.748Z,27.9
2017-01-18T20:28:06.446Z,27.9
2017-01-18T20:30:05.366Z,27.9
2017-01-18T20:32:05.113Z,28
2017-01-18T20:34:05.832Z,28
2017-01-18T20:36:10.797Z,27.9
2017-01-18T20:38:05.597Z,27.8
2017-01-18T20:40:07.999Z,27.9
2017-01-18T20:42:06.215Z,28
2017-01-18T20:44:06.070Z,27.9
2017-01-18T20:46:05.969Z,27.9
2017-01-18T20:48:05.921Z,27.9
2017-01-18T20:50:06.023Z,28
2017-01-18T20:52:05.426Z,27.8
2017-01-18T20:54:10.379Z,27.9
2017-01-18T20:56:08.973Z,27.9
2017-01-18T20:58:08.398Z,27.8
2017-01-18T21:00:05.148Z,27.8
2017-01-18T21:02:06.314Z,27.9
2017-01-18T21:04:05.012Z,27.8
2017-01-18T21:06:05.281Z,27.8
2017-01-18T21:08:06.155Z,27.8
2017-01-18T21:10:05.845Z,28
2017-01-18T21:12:08.415Z,27.8
2017-01-18T21:14:05.337Z,27.8
2017-01-18T21:16:05.024Z,27.8
2017-01-18T21:18:08.563Z,27.8
2017-01-18T21:20:05.555Z,27.8
2017-01-18T21:22:05.306Z,27.8
2017-01-18T21:24:10.072Z,27.7
2017-01-18T21:26:11.214Z,27.8
2017-01-18T21:28:05.323Z,27.8
2017-01-18T21:30:05.010Z,28
2017-01-18T21:32:05.709Z,28
2017-01-18T21:34:05.406Z,27.9
2017-01-18T21:36:05.669Z,27.9
2017-01-18T21:38:05.380Z,27.9
2017-01-18T21:40:08.784Z,27.9
2017-01-18T21:42:05.068Z,27.9
2017-01-18T21:44:06.117Z,27.9
2017-01-18T21:46:05.433Z,27.9
2017-01-18T21:48:05.198Z,27.7
2017-01-18T21:50:05.888Z,27.9
2017-01-18T21:52:08.117Z,27.9
2017-01-18T21:54:05.800Z,27.9
2017-01-18T21:56:07.902Z,27.9
2017-01-18T21:58:05.704Z,27.9
2017-01-18T22:00:05.573Z,27.9
2017-01-18T22:02:06.219Z,27.9
2017-01-18T22:04:05.966Z,27.7
2017-01-18T22:06:08.262Z,27.7
2017-01-18T22:08:06.339Z,27.7
2017-01-18T22:10:05.029Z,27.7
2017-01-18T22:12:05.871Z,27.7
2017-01-18T22:14:05.809Z,27.7
2017-01-18T22:16:05.398Z,27.9
2017-01-18T22:18:05.486Z,27.7
2017-01-18T22:20:05.259Z,27.8
2017-01-18T22:22:05.538Z,27.6
2017-01-18T22:24:08.922Z,27.7
2017-01-18T22:26:05.702Z,27.7
2017-01-18T22:28:05.501Z,27.7
2017-01-18T22:30:05.212Z,27.7
2017-01-18T22:32:05.364Z,27.7
2017-01-18T22:34:05.111Z,27.7
2017-01-18T22:36:05.956Z,27.7
2017-01-18T22:38:05.568Z,27.7
2017-01-18T22:40:08.345Z,27.7
2017-01-18T22:42:05.079Z,27.7
2017-01-18T22:44:06.085Z,27.7
2017-01-18T22:46:05.812Z,27.7
2017-01-18T22:48:06.333Z,27.7
2017-01-18T22:50:05.506Z,27.7
2017-01-18T22:52:05.313Z,27.7
2017-01-18T22:54:05.033Z,27.7
2017-01-18T22:56:05.994Z,27.9
2017-01-18T22:58:05.662Z,27.7
2017-01-18T23:00:05.558Z,27.7
2017-01-18T23:02:08.198Z,27.7
2017-01-18T23:04:06.226Z,27.7
2017-01-18T23:06:05.947Z,27.7
2017-01-18T23:08:05.953Z,27.7
2017-01-18T23:10:08.175Z,27.7
2017-01-18T23:12:05.863Z,27.7
2017-01-18T23:14:05.914Z,27.7
2017-01-18T23:16:05.635Z,27.7
2017-01-18T23:18:05.505Z,27.6
2017-01-18T23:20:05.558Z,27.7
2017-01-18T23:22:05.291Z,27.7
2017-01-18T23:24:05.105Z,27.7
2017-01-18T23:26:11.008Z,27.7
2017-01-18T23:28:05.739Z,27.7
2017-01-18T23:30:05.573Z,27.7
2017-01-18T23:32:05.318Z,27.7
2017-01-18T23:34:05.059Z,27.7
2017-01-18T23:36:05.415Z,27.7
2017-01-18T23:38:07.916Z,27.7
2017-01-18T23:40:08.136Z,27.7
2017-01-18T23:42:15.550Z,27.7
2017-01-18T23:44:05.618Z,27.7
2017-01-18T23:46:07.920Z,27.7
2017-01-18T23:48:05.968Z,27.7
2017-01-18T23:50:06.064Z,27.7
2017-01-18T23:52:06.070Z,27.7
2017-01-18T23:54:05.778Z,27.7
2017-01-18T23:56:05.614Z,27.7
2017-01-18T23:58:05.306Z,27.7
